Time;durP1;ratioP1;P1;durP2;ratioP2;P2;SDS_P1;SDS_P2;PMS_P1;PMS_P2;Temp;Humidity;BMP_temperature;BMP_pressure;BME280_temperature;BME280_humidity;BME280_pressure;Samples;Min_cycle;Max_cycle;Signal;HPM_P1;HPM_P2
2022/09/19 00:01:07;;;;;;;3.53;1.60;;;;;;;20.21;42.31;100760.22;5070041;28;20272;-79
2022/09/19 00:03:35;;;;;;;2.05;1.30;;;;;;;20.04;41.56;100736.25;5069409;28;20623;-79
2022/09/19 00:06:02;;;;;;;2.15;1.30;;;;;;;20.16;41.80;100751.91;5067695;28;20045;-80
2022/09/19 00:08:30;;;;;;;3.22;1.48;;;;;;;20.11;42.57;100749.78;5067458;28;20052;-81
2022/09/19 00:11:00;;;;;;;2.38;1.40;;;;;;;20.00;43.48;100726.91;5067396;28;20052;-79
2022/09/19 00:13:27;;;;;;;1.33;1.20;;;;;;;20.14;42.50;100733.22;5067305;28;20050;-79
2022/09/19 00:15:54;;;;;;;8.38;1.52;;;;;;;20.21;42.08;100717.94;5068246;28;20059;-79
2022/09/19 00:18:21;;;;;;;1.50;1.10;;;;;;;20.33;42.18;100758.66;5067499;28;20484;-79
2022/09/19 00:20:49;;;;;;;2.95;1.52;;;;;;;20.44;43.14;100752.72;5067485;28;20053;-79
2022/09/19 00:26:05;;;;;;;5.05;1.17;;;;;;;20.45;42.96;100735.50;5070450;28;20422;-79
2022/09/19 00:28:31;;;;;;;3.63;1.30;;;;;;;20.39;43.47;100722.84;5067582;28;20048;-81
2022/09/19 00:31:00;;;;;;;1.15;1.05;;;;;;;20.30;43.73;100701.63;5067444;28;20052;-79
2022/09/19 00:33:30;;;;;;;2.38;1.30;;;;;;;20.48;43.79;100750.44;5068943;28;20072;-78
2022/09/19 00:36:03;;;;;;;2.05;1.30;;;;;;;20.47;44.46;100743.41;5068289;28;20272;-78
2022/09/19 00:38:31;;;;;;;4.72;1.52;;;;;;;20.09;44.20;100681.78;5070596;28;20048;-80
2022/09/19 00:40:58;;;;;;;2.28;1.30;;;;;;;20.23;43.96;100729.34;5067133;28;20048;-79
2022/09/19 00:43:43;;;;;;;1.92;1.52;;;;;;;20.21;44.57;100734.09;5067276;28;20609;-80
2022/09/19 00:46:10;;;;;;;6.00;1.30;;;;;;;20.18;44.75;100734.50;5067134;28;20488;-80
2022/09/19 00:48:41;;;;;;;2.63;1.30;;;;;;;20.12;44.89;100737.13;5066967;28;20050;-78
2022/09/19 00:51:19;;;;;;;2.00;1.17;;;;;;;20.10;45.55;100737.34;5066801;28;20139;-79
2022/09/19 00:53:48;;;;;;;1.95;1.10;;;;;;;19.94;45.73;100713.38;5066543;28;20522;-78
2022/09/19 00:56:18;;;;;;;4.18;1.13;;;;;;;19.80;46.03;100710.56;5066541;28;20101;-78
2022/09/19 00:58:46;;;;;;;3.05;1.10;;;;;;;20.02;46.07;100714.06;5068170;28;20135;-79
2022/09/19 01:01:14;;;;;;;4.00;1.30;;;;;;;19.95;46.18;100704.25;5066902;28;20500;-79
2022/09/19 01:03:45;;;;;;;3.33;1.30;;;;;;;19.90;45.92;100709.41;5068319;28;20136;-80
2022/09/19 01:06:42;;;;;;;11.95;2.05;;;;;;;19.84;47.17;100727.19;5066864;28;20049;-79
2022/09/19 01:09:43;;;;;;;2.65;1.23;;;;;;;19.77;46.70;100729.00;5066292;28;20052;-79
2022/09/19 01:12:19;;;;;;;4.45;1.40;;;;;;;19.78;47.04;100731.50;5066083;28;20076;-78
2022/09/19 01:15:38;;;;;;;4.35;1.90;;;;;;;19.87;47.03;100726.78;5066126;28;20447;-79
2022/09/19 01:18:06;;;;;;;1.65;1.25;;;;;;;19.96;46.14;100714.03;5057964;28;20324;-79
2022/09/19 01:20:52;;;;;;;4.72;1.60;;;;;;;19.99;46.22;100729.78;5067608;28;20044;-79
2022/09/19 01:23:50;;;;;;;11.57;5.88;;;;;;;19.98;46.41;100723.56;5066166;28;20040;-79
2022/09/19 01:26:42;;;;;;;14.75;9.68;;;;;;;19.72;46.29;100670.31;5065947;28;20048;-80
2022/09/19 01:29:12;;;;;;;;;;;;;;;20.08;46.52;100722.41;5067908;28;20143;-78
2022/09/19 01:31:48;;;;;;;15.10;9.75;;;;;;;19.97;46.65;100704.91;5066375;28;20295;-79
2022/09/19 01:34:32;;;;;;;9.82;7.68;;;;;;;19.41;46.97;100625.69;5066265;28;20103;-80
2022/09/19 01:37:12;;;;;;;13.38;8.38;;;;;;;19.52;47.46;100653.13;5065770;28;20040;-79
2022/09/19 01:39:42;;;;;;;12.50;6.05;;;;;;;19.90;47.33;100715.63;5066075;28;20040;-77
2022/09/19 01:42:12;;;;;;;10.57;6.90;;;;;;;19.28;47.79;100616.69;5065509;28;20055;-79
2022/09/19 01:44:39;;;;;;;7.88;6.40;;;;;;;19.73;47.65;100688.13;5065693;28;20194;-79
2022/09/19 01:47:22;;;;;;;9.50;6.35;;;;;;;19.89;48.19;100696.97;5065613;28;20051;-81
2022/09/19 01:50:10;;;;;;;7.20;5.43;;;;;;;19.57;47.92;100650.69;5049547;28;20126;-79
2022/09/19 01:53:25;;;;;;;7.85;6.60;;;;;;;19.80;48.47;100691.72;5062909;28;20052;-79
2022/09/19 01:56:10;;;;;;;10.75;7.15;;;;;;;19.81;48.80;100696.09;5032698;28;20566;-80
2022/09/19 01:58:48;;;;;;;8.98;6.57;;;;;;;19.68;48.66;100666.34;5045681;28;20473;-79
2022/09/19 02:01:45;;;;;;;8.15;6.10;;;;;;;19.58;49.01;100638.88;5046688;28;20059;-78
2022/09/19 02:04:21;;;;;;;10.52;5.97;;;;;;;19.87;49.43;100674.78;5062120;28;20049;-76
2022/09/19 02:07:07;;;;;;;10.80;6.20;;;;;;;19.89;49.12;100670.03;5061653;28;20056;-78
2022/09/19 02:09:36;;;;;;;8.38;5.93;;;;;;;20.13;49.30;100680.34;5061668;28;20071;-78
2022/09/19 02:12:07;;;;;;;10.50;5.65;;;;;;;20.03;49.15;100663.72;5045346;28;20478;-77
2022/09/19 02:14:36;;;;;;;9.60;5.80;;;;;;;20.06;48.85;100664.13;5061608;28;20049;-78
2022/09/19 02:17:09;;;;;;;12.55;5.00;;;;;;;19.93;48.97;100644.34;5061815;28;20049;-78
2022/09/19 02:19:48;;;;;;;8.57;4.57;;;;;;;20.10;49.17;100672.69;5061573;28;20056;-79
2022/09/19 02:22:27;;;;;;;9.40;3.97;;;;;;;20.09;49.13;100668.28;5061666;28;20053;-78
2022/09/19 02:24:58;;;;;;;5.10;3.58;;;;;;;19.96;49.60;100649.34;5045212;28;20049;-79
2022/09/19 02:27:35;;;;;;;9.63;4.72;;;;;;;19.89;49.31;100626.94;5061637;28;20144;-79
2022/09/19 02:30:08;;;;;;;9.82;3.97;;;;;;;20.05;49.26;100653.56;5046323;28;20059;-80
2022/09/19 02:32:36;;;;;;;8.02;3.58;;;;;;;20.06;49.78;100649.84;5046673;28;20049;-80
2022/09/19 02:35:05;;;;;;;6.72;2.72;;;;;;;20.05;49.62;100638.22;5062066;28;20412;-79
2022/09/19 02:37:39;;;;;;;5.88;2.63;;;;;;;20.09;49.58;100657.50;5055717;28;20131;-79
2022/09/19 02:40:16;;;;;;;3.88;2.08;;;;;;;20.06;49.77;100656.06;5064772;28;20040;-80
2022/09/19 02:43:02;;;;;;;5.55;2.28;;;;;;;19.94;50.70;100646.03;5081246;28;20063;-78
2022/09/19 02:45:32;;;;;;;3.78;2.60;;;;;;;19.84;50.24;100651.75;5064956;28;20515;-78
2022/09/19 02:48:08;;;;;;;4.13;1.90;;;;;;;19.24;50.70;100559.69;5065748;28;20048;-79
2022/09/19 02:50:39;;;;;;;3.45;1.83;;;;;;;19.74;51.38;100645.88;5065038;28;20337;-79
2022/09/19 02:53:12;;;;;;;2.80;1.75;;;;;;;19.40;51.25;100590.91;5066268;28;20059;-79
2022/09/19 02:55:47;;;;;;;4.82;1.60;;;;;;;19.40;51.50;100601.66;5065687;28;20051;-80
2022/09/19 02:58:16;;;;;;;3.72;1.77;;;;;;;19.27;51.20;100586.22;5066072;28;20055;-79
2022/09/19 03:00:52;;;;;;;3.45;1.60;;;;;;;19.55;51.52;100639.28;5065824;28;20059;-79
2022/09/19 03:06:14;;;;;;;6.97;1.55;;;;;;;19.37;52.61;100627.13;5065969;28;20052;-79
2022/09/19 03:08:45;;;;;;;3.45;1.30;;;;;;;19.37;52.47;100623.56;5065061;28;20055;-78
2022/09/19 03:11:16;;;;;;;4.22;1.52;;;;;;;19.40;52.87;100631.28;5066155;28;20287;-79
2022/09/19 03:13:43;;;;;;;3.13;1.52;;;;;;;19.36;53.11;100643.44;5064472;28;20151;-80
2022/09/19 03:16:18;;;;;;;2.70;1.75;;;;;;;18.89;53.01;100556.09;5064714;28;20071;-79
2022/09/19 03:18:46;;;;;;;6.95;1.40;;;;;;;18.85;53.66;100560.19;5066984;28;20585;-78
2022/09/19 03:21:20;;;;;;;2.35;1.30;;;;;;;18.94;53.46;100589.44;5068545;28;20576;-79
2022/09/19 03:23:49;;;;;;;5.82;1.50;;;;;;;18.73;53.20;100546.38;5068508;28;20144;-79
2022/09/19 03:26:25;;;;;;;5.90;2.08;;;;;;;17.90;53.60;100412.34;5069653;28;20419;-79
2022/09/19 03:28:54;;;;;;;4.63;1.90;;;;;;;19.16;53.11;100616.34;5068181;28;20298;-79
2022/09/19 03:31:22;;;;;;;5.55;1.30;;;;;;;19.14;53.70;100615.72;5068599;28;20052;-78
2022/09/19 03:33:51;;;;;;;6.07;1.50;;;;;;;17.75;53.65;100383.84;5070059;28;20053;-80
2022/09/19 03:36:18;;;;;;;5.78;1.80;;;;;;;19.06;53.60;100594.31;5070951;28;20079;-79
2022/09/19 03:38:45;;;;;;;4.90;1.75;;;;;;;19.19;53.45;100611.41;5072696;28;20044;-80
2022/09/19 03:41:13;;;;;;;3.13;1.70;;;;;;;19.07;53.54;100579.84;5072678;28;20059;-76
2022/09/19 03:43:42;;;;;;;2.13;1.33;;;;;;;19.23;53.22;100603.81;5072492;28;20048;-76
2022/09/19 03:46:14;;;;;;;3.80;1.83;;;;;;;19.30;53.22;100602.00;5069706;28;20135;-76
2022/09/19 03:48:44;;;;;;;3.00;1.48;;;;;;;19.44;52.88;100608.31;5068133;28;20041;-77
2022/09/19 03:51:15;;;;;;;6.55;1.70;;;;;;;19.43;52.72;100588.63;5067748;28;20407;-78
2022/09/19 03:53:45;;;;;;;6.45;1.58;;;;;;;19.53;52.18;100584.78;5067876;28;20055;-80
2022/09/19 03:56:13;;;;;;;4.05;1.75;;;;;;;19.71;52.03;100604.03;5067887;28;20063;-79
2022/09/19 03:58:41;;;;;;;2.33;1.50;;;;;;;19.75;52.16;100607.13;5067690;28;20049;-79
2022/09/19 04:01:08;;;;;;;5.07;1.63;;;;;;;19.81;52.45;100620.66;5067847;28;20047;-79
2022/09/19 04:03:37;;;;;;;6.32;1.77;;;;;;;19.82;52.23;100621.47;5067803;28;20063;-79
2022/09/19 04:06:04;;;;;;;6.95;1.77;;;;;;;19.57;52.45;100575.28;5069081;28;20492;-81
2022/09/19 04:08:31;;;;;;;2.72;1.60;;;;;;;19.81;52.72;100617.97;5067973;28;20080;-80
2022/09/19 04:10:59;;;;;;;7.88;1.38;;;;;;;19.80;52.63;100626.22;5067509;28;20571;-78
2022/09/19 04:13:28;;;;;;;4.78;1.70;;;;;;;19.71;53.09;100617.50;5068539;28;20052;-79
2022/09/19 04:15:54;;;;;;;4.75;1.75;;;;;;;19.61;53.17;100595.41;5067206;28;20407;-79
2022/09/19 04:18:21;;;;;;;5.47;1.88;;;;;;;19.40;53.06;100570.19;5067630;28;20045;-79
2022/09/19 04:20:50;;;;;;;5.28;1.60;;;;;;;19.70;53.07;100614.97;5067140;28;20052;-80
2022/09/19 04:23:18;;;;;;;3.17;1.63;;;;;;;19.34;53.09;100560.19;5066990;28;20488;-80
2022/09/19 04:25:46;;;;;;;3.38;1.88;;;;;;;19.77;52.87;100627.47;5067322;28;20063;-79
2022/09/19 04:28:16;;;;;;;5.47;2.10;;;;;;;19.63;53.19;100606.81;5066927;28;20140;-79
2022/09/19 04:30:43;;;;;;;5.47;1.65;;;;;;;19.66;53.33;100614.53;5067007;28;20063;-80
2022/09/19 04:33:12;;;;;;;7.60;1.50;;;;;;;19.70;52.94;100613.09;5067021;28;20583;-79
2022/09/19 04:35:43;;;;;;;9.70;1.77;;;;;;;19.75;52.74;100626.00;5067177;28;20054;-79
2022/09/19 04:38:13;;;;;;;6.75;2.20;;;;;;;19.73;53.39;100642.34;5067341;28;20496;-78
2022/09/19 04:40:42;;;;;;;4.35;1.67;;;;;;;19.65;53.61;100648.66;5066785;28;20496;-78
2022/09/19 04:43:11;;;;;;;4.38;1.55;;;;;;;19.28;54.07;100568.25;5070255;28;20084;-79
2022/09/19 04:45:42;;;;;;;8.27;1.63;;;;;;;19.80;53.00;100662.06;5070267;28;20485;-78
2022/09/19 04:48:10;;;;;;;3.72;1.98;;;;;;;19.64;52.63;100659.66;5067191;28;20040;-79
2022/09/19 04:50:36;;;;;;;3.47;1.98;;;;;;;19.42;53.14;100659.66;5066867;28;20071;-78
2022/09/19 04:53:03;;;;;;;7.05;2.40;;;;;;;19.32;53.11;100663.69;5066370;28;20131;-80
2022/09/19 04:55:30;;;;;;;8.88;2.22;;;;;;;18.67;53.09;100591.00;5066940;28;20127;-80
2022/09/19 04:58:02;;;;;;;6.03;2.25;;;;;;;18.76;53.85;100638.28;5066797;28;20503;-79
2022/09/19 05:00:41;;;;;;;7.78;2.38;;;;;;;18.51;53.97;100632.34;5066671;28;20052;-79
2022/09/19 05:03:11;;;;;;;7.97;2.10;;;;;;;18.58;54.43;100673.59;5066584;28;20064;-81
2022/09/19 05:05:50;;;;;;;16.50;11.23;;;;;;;18.07;54.92;100627.84;5067956;28;20136;-80
2022/09/19 05:08:26;;;;;;;5.95;2.42;;;;;;;18.28;55.07;100678.16;5066828;28;20294;-78
2022/09/19 05:10:58;;;;;;;6.13;2.65;;;;;;;17.76;55.28;100617.22;5045958;28;20081;-78
2022/09/19 05:13:28;;;;;;;5.22;2.28;;;;;;;17.95;55.51;100672.28;5046650;28;20057;-77
2022/09/19 05:15:55;;;;;;;4.75;2.40;;;;;;;17.87;55.32;100677.75;5046675;28;20053;-79
2022/09/19 05:18:23;;;;;;;4.68;2.15;;;;;;;17.76;56.19;100688.91;5048382;28;20107;-78
2022/09/19 05:20:52;;;;;;;7.65;2.50;;;;;;;17.55;55.85;100671.63;5046917;28;20045;-78
2022/09/19 05:23:20;;;;;;;8.63;2.45;;;;;;;17.51;55.72;100691.78;5048303;28;20153;-77
2022/09/19 05:25:46;;;;;;;8.13;3.25;;;;;;;17.26;56.01;100672.34;5046473;28;20495;-78
2022/09/19 05:28:13;;;;;;;3.63;2.47;;;;;;;17.33;55.83;100701.97;5046835;28;20427;-78
2022/09/19 05:30:46;;;;;;;6.72;2.85;;;;;;;17.23;56.76;100716.47;5052413;28;20374;-81
2022/09/19 05:33:13;;;;;;;4.82;2.53;;;;;;;17.19;56.80;100715.16;5056669;28;20067;-77
2022/09/19 05:35:40;;;;;;;9.55;3.08;;;;;;;17.07;56.91;100717.38;5050142;28;20136;-78
2022/09/19 05:38:07;;;;;;;5.40;2.97;;;;;;;17.18;57.03;100720.69;5061804;28;20059;-78
2022/09/19 05:40:36;;;;;;;6.40;2.58;;;;;;;17.06;57.34;100723.78;5065139;28;20624;-78
2022/09/19 05:43:02;;;;;;;5.95;2.65;;;;;;;17.06;57.35;100736.31;5067253;28;20063;-79
2022/09/19 05:45:31;;;;;;;3.72;2.80;;;;;;;16.94;57.58;100718.97;5060160;28;20554;-77
2022/09/19 05:48:06;;;;;;;10.18;2.90;;;;;;;17.12;57.56;100732.13;5047574;28;20084;-79
2022/09/19 05:50:33;;;;;;;7.65;3.00;;;;;;;17.04;58.08;100741.06;5067232;28;20408;-78
2022/09/19 05:55:46;;;;;;;7.88;3.47;;;;;;;17.19;57.96;100741.97;5067338;28;20056;-77
2022/09/19 05:58:16;;;;;;;10.25;2.88;;;;;;;17.20;57.88;100727.53;5049221;28;20118;-78
2022/09/19 06:00:43;;;;;;;9.40;3.33;;;;;;;17.38;57.88;100745.19;5045472;28;20478;-78
2022/09/19 06:03:16;;;;;;;7.47;3.08;;;;;;;17.43;57.66;100750.91;5045059;28;20057;-78
2022/09/19 06:05:45;;;;;;;10.90;3.53;;;;;;;17.48;57.87;100751.19;5064532;28;20083;-79
2022/09/19 06:08:11;;;;;;;9.98;3.30;;;;;;;17.40;56.95;100724.38;5079803;28;20378;-79
2022/09/19 06:10:40;;;;;;;13.90;3.30;;;;;;;17.57;56.85;100747.41;5061669;28;20055;-79
2022/09/19 06:13:11;;;;;;;6.57;2.90;;;;;;;17.50;57.34;100744.63;5045308;28;20048;-78
2022/09/19 06:15:38;;;;;;;6.32;2.45;;;;;;;17.60;56.95;100765.88;5064581;28;20071;-80
2022/09/19 06:18:05;;;;;;;8.95;3.45;;;;;;;17.62;56.74;100755.78;5048189;28;20518;-78
2022/09/19 06:20:32;;;;;;;7.85;3.30;;;;;;;17.59;56.23;100742.72;5045326;28;20141;-80
2022/09/19 06:23:01;;;;;;;5.95;2.80;;;;;;;17.78;55.68;100756.69;5062578;28;20058;-78
2022/09/19 06:25:36;;;;;;;6.88;3.22;;;;;;;17.91;55.53;100764.97;5065170;28;20076;-82
2022/09/19 06:28:06;;;;;;;8.60;3.25;;;;;;;18.01;55.41;100767.41;5056256;28;20143;-80
2022/09/19 06:30:33;;;;;;;5.90;3.08;;;;;;;17.97;54.85;100742.78;5061490;28;20049;-78
2022/09/19 06:33:00;;;;;;;10.77;3.00;;;;;;;18.19;55.48;100765.25;5044417;28;20044;-78
2022/09/19 06:35:31;;;;;;;8.82;3.40;;;;;;;18.22;55.40;100753.31;5044925;28;20087;-79
2022/09/19 06:38:00;;;;;;;12.23;3.33;;;;;;;18.27;54.62;100758.97;5064650;28;20057;-78
2022/09/19 06:40:29;;;;;;;8.20;4.13;;;;;;;17.79;53.29;100672.41;5065829;28;20036;-79
2022/09/19 06:43:02;;;;;;;10.02;3.83;;;;;;;18.54;52.17;100773.63;5065793;28;20060;-77
2022/09/19 06:45:30;;;;;;;15.15;3.65;;;;;;;18.57;52.55;100774.13;5065006;28;20053;-77
2022/09/19 06:47:58;;;;;;;9.45;3.35;;;;;;;18.66;51.02;100771.31;5064188;28;20408;-80
2022/09/19 06:50:25;;;;;;;10.73;3.33;;;;;;;18.75;50.12;100765.66;5060894;28;20041;-78
2022/09/19 06:52:53;;;;;;;11.75;3.10;;;;;;;18.74;50.25;100750.56;5061736;28;20060;-79
2022/09/19 06:55:19;;;;;;;5.85;2.60;;;;;;;18.91;50.32;100775.44;5062710;28;20530;-79
2022/09/19 06:58:02;;;;;;;6.75;2.50;;;;;;;19.05;49.31;100781.81;5044803;28;20053;-78
2022/09/19 07:00:35;;;;;;;8.63;2.45;;;;;;;18.80;50.02;100730.19;5044495;28;20064;-78
2022/09/19 07:03:14;;;;;;;7.40;2.40;;;;;;;19.16;49.11;100781.34;5045479;28;20173;-78
2022/09/19 07:05:42;;;;;;;5.53;2.47;;;;;;;19.21;48.95;100791.53;5044488;28;20132;-77
2022/09/19 07:08:11;;;;;;;6.65;2.53;;;;;;;19.27;48.63;100785.38;5043771;28;20051;-79
2022/09/19 07:10:38;;;;;;;4.63;1.92;;;;;;;19.26;48.35;100772.13;5060566;28;20068;-78
2022/09/19 07:13:06;;;;;;;8.52;2.60;;;;;;;19.42;48.46;100771.91;5060886;28;20037;-78
2022/09/19 07:15:34;;;;;;;6.00;2.33;;;;;;;19.55;48.18;100787.38;5060666;28;20071;-77
2022/09/19 07:18:01;;;;;;;6.85;2.75;;;;;;;19.61;48.35;100778.50;5059855;28;20056;-79
2022/09/19 07:20:28;;;;;;;11.45;2.20;;;;;;;19.41;47.36;100743.31;5062683;28;20135;-80
2022/09/19 07:23:00;;;;;;;6.20;2.33;;;;;;;19.76;46.87;100782.03;5060001;28;20140;-79
2022/09/19 07:25:28;;;;;;;8.55;2.60;;;;;;;19.90;46.80;100792.91;5059897;28;20456;-79
2022/09/19 07:27:57;;;;;;;6.43;2.08;;;;;;;19.97;46.19;100797.34;5059773;28;20045;-79
2022/09/19 07:30:30;;;;;;;5.20;2.28;;;;;;;20.00;46.52;100805.06;5059248;28;20482;-78
2022/09/19 07:32:58;;;;;;;4.45;1.98;;;;;;;19.94;46.67;100775.34;5060526;28;20053;-77
2022/09/19 07:35:27;;;;;;;8.25;1.90;;;;;;;19.98;46.47;100777.47;5060751;28;20041;-79
2022/09/19 07:38:00;;;;;;;3.47;1.90;;;;;;;20.16;45.81;100801.25;5064112;28;20110;-79
2022/09/19 07:40:27;;;;;;;6.85;2.25;;;;;;;20.31;45.91;100822.72;5064519;28;20051;-79
2022/09/19 07:43:01;;;;;;;4.18;1.90;;;;;;;20.32;45.32;100815.47;5064143;28;20110;-79
2022/09/19 07:45:32;;;;;;;5.88;2.13;;;;;;;20.42;45.24;100826.75;5061323;28;20132;-79
2022/09/19 07:48:02;;;;;;;7.57;1.80;;;;;;;20.38;46.94;100825.47;5061562;28;20048;-78
2022/09/19 07:50:29;;;;;;;5.57;1.92;;;;;;;20.42;47.24;100827.59;5060756;28;20057;-77
2022/09/19 07:53:11;;;;;;;4.25;1.67;;;;;;;20.54;47.16;100840.53;5060895;28;20504;-77
2022/09/19 07:55:38;;;;;;;2.35;1.60;;;;;;;20.57;47.86;100845.56;5045567;28;20288;-78
2022/09/19 07:58:05;;;;;;;4.85;2.13;;;;;;;20.61;47.33;100846.84;5064028;28;20053;-77
2022/09/19 08:00:37;;;;;;;7.32;2.03;;;;;;;20.58;48.09;100845.34;5065152;28;20117;-79
2022/09/19 08:03:09;;;;;;;8.25;1.85;;;;;;;20.68;47.18;100853.97;5064029;28;20083;-76
2022/09/19 08:05:39;;;;;;;5.90;1.90;;;;;;;20.72;47.78;100859.78;5067474;28;20060;-78
2022/09/19 08:08:07;;;;;;;3.78;1.73;;;;;;;20.81;46.99;100865.88;5067871;28;20107;-77
2022/09/19 08:10:34;;;;;;;3.25;1.75;;;;;;;20.65;47.15;100859.72;5067701;28;20048;-78
2022/09/19 08:13:02;;;;;;;5.35;1.85;;;;;;;20.59;47.30;100822.75;5067593;28;20083;-78
2022/09/19 08:15:30;;;;;;;3.85;1.70;;;;;;;20.73;48.20;100852.50;5067556;28;20060;-78
2022/09/19 08:18:07;;;;;;;2.22;1.58;;;;;;;20.85;48.32;100864.41;5067523;28;20063;-78
2022/09/19 08:20:39;;;;;;;2.67;1.77;;;;;;;20.30;48.10;100795.97;5067644;28;20152;-78
2022/09/19 08:23:09;;;;;;;2.15;1.50;;;;;;;20.85;48.54;100864.41;5066887;28;20606;-78
2022/09/19 08:25:42;;;;;;;4.03;1.77;;;;;;;20.91;47.95;100863.66;5066906;28;20062;-78
2022/09/19 08:28:09;;;;;;;5.15;1.55;;;;;;;20.88;48.15;100859.47;5067645;28;20060;-77
2022/09/19 08:30:36;;;;;;;3.55;1.83;;;;;;;20.89;48.90;100866.53;5067872;28;20109;-78
2022/09/19 08:33:06;;;;;;;3.20;1.35;;;;;;;20.95;48.76;100867.63;5067598;28;20226;-77
2022/09/19 08:35:39;;;;;;;10.10;1.65;;;;;;;21.03;48.88;100878.25;5068270;28;20044;-80
2022/09/19 08:38:08;;;;;;;4.97;1.40;;;;;;;21.04;48.99;100863.72;5053240;28;20356;-79
2022/09/19 08:40:40;;;;;;;7.10;1.60;;;;;;;21.26;49.13;100874.41;5049251;28;20114;-78
2022/09/19 08:43:09;;;;;;;2.22;1.58;;;;;;;21.28;48.87;100875.88;5047249;28;20053;-78
2022/09/19 08:46:01;;;;;;;4.13;1.58;;;;;;;21.25;47.91;100859.25;5046884;28;20041;-79
2022/09/19 08:48:49;;;;;;;3.45;1.52;;;;;;;21.39;47.78;100879.94;5051376;28;20055;-78
2022/09/19 08:51:26;;;;;;;4.45;1.27;;;;;;;21.40;48.07;100878.88;5067278;28;20059;-78
2022/09/19 08:54:00;;;;;;;4.38;1.70;;;;;;;21.54;48.51;100879.78;5066515;28;20051;-76
2022/09/19 08:56:28;;;;;;;4.43;1.40;;;;;;;21.55;47.91;100882.28;5067760;28;20040;-78
2022/09/19 08:59:01;;;;;;;3.75;1.48;;;;;;;21.67;48.57;100895.19;5067499;28;20128;-79
2022/09/19 09:01:34;;;;;;;7.82;1.80;;;;;;;21.80;47.03;100884.44;5053598;28;20136;-77
2022/09/19 09:04:31;;;;;;;4.88;1.58;;;;;;;21.87;47.53;100900.66;5068695;28;20518;-77
2022/09/19 09:07:34;;;;;;;3.72;1.67;;;;;;;21.64;47.45;100874.00;5068224;28;20045;-80
2022/09/19 09:10:24;;;;;;;5.57;1.33;;;;;;;21.58;46.62;100840.53;5061588;28;20074;-76
2022/09/19 09:13:10;;;;;;;5.05;1.30;;;;;;;21.81;47.35;100863.66;5060313;28;20528;-79
2022/09/19 09:16:23;;;;;;;4.90;1.70;;;;;;;22.18;46.83;100916.34;5044789;28;20150;-79
2022/09/19 09:19:09;;;;;;;4.07;1.77;;;;;;;22.36;46.75;100905.78;5032938;28;20412;-77
2022/09/19 09:21:49;;;;;;;9.93;2.28;;;;;;;22.00;46.82;100829.59;5064359;28;20045;-79
2022/09/19 09:24:24;;;;;;;3.92;1.50;;;;;;;22.35;46.55;100873.53;5066128;28;20508;-78
2022/09/19 09:27:04;;;;;;;7.43;1.83;;;;;;;22.53;46.77;100889.97;5066415;28;20056;-79
2022/09/19 09:29:37;;;;;;;3.73;2.00;;;;;;;22.78;46.74;100906.41;5065862;28;20140;-78
2022/09/19 09:32:15;;;;;;;4.30;1.70;;;;;;;22.92;45.84;100914.53;5064845;28;20083;-78
2022/09/19 09:35:14;;;;;;;2.50;1.50;;;;;;;23.06;45.24;100894.56;5065542;28;20063;-79
2022/09/19 09:37:48;;;;;;;5.68;2.00;;;;;;;23.08;45.52;100900.56;5043457;28;20084;-80
2022/09/19 09:43:14;;;;;;;7.07;1.67;;;;;;;23.38;46.44;100905.50;5065652;28;20470;-79
2022/09/19 09:45:49;;;;;;;3.63;2.05;;;;;;;23.55;45.69;100906.69;5059939;28;20053;-79
2022/09/19 09:48:24;;;;;;;3.65;1.73;;;;;;;22.70;45.20;100752.38;5061223;28;20057;-78
2022/09/19 09:50:50;;;;;;;3.80;2.00;;;;;;;23.82;45.55;100914.72;5065100;28;20113;-79
2022/09/19 09:53:48;;;;;;;3.40;1.55;;;;;;;23.86;44.92;100895.09;5065669;28;20075;-80
2022/09/19 09:56:49;;;;;;;4.68;1.95;;;;;;;24.05;44.15;100903.31;5065266;28;20056;-80
2022/09/19 10:05:39;;;;;;;3.85;1.98;;;;;;;24.20;44.72;100908.44;5044705;28;20056;-80
2022/09/19 10:08:21;;;;;;;4.65;1.92;;;;;;;24.29;43.55;100899.81;5045482;28;20055;-79
2022/09/19 10:10:47;;;;;;;7.72;1.80;;;;;;;24.46;44.62;100918.31;5047065;28;20140;-81
2022/09/19 10:13:27;;;;;;;7.32;1.50;;;;;;;24.57;43.22;100900.50;5046829;28;20045;-80
2022/09/19 10:15:56;;;;;;;5.72;2.28;;;;;;;24.67;43.36;100923.34;5046722;28;20088;-80
2022/09/19 10:18:28;;;;;;;5.05;2.58;;;;;;;24.66;44.06;100921.69;5046780;28;20063;-79
2022/09/19 10:20:55;;;;;;;4.78;2.08;;;;;;;24.78;43.41;100910.91;5046827;28;20061;-81
2022/09/19 10:23:29;;;;;;;9.75;2.03;;;;;;;24.66;43.33;100885.56;5045250;28;20076;-79
2022/09/19 10:26:03;;;;;;;9.93;2.22;;;;;;;24.45;43.29;100846.91;5045209;28;20095;-80
2022/09/19 10:28:46;;;;;;;6.97;1.95;;;;;;;24.95;42.87;100920.19;5046093;28;20088;-79
2022/09/19 10:31:23;;;;;;;3.10;1.95;;;;;;;25.00;42.52;100910.50;5046328;28;20076;-79
2022/09/19 10:33:50;;;;;;;6.30;1.90;;;;;;;25.00;42.82;100905.94;5061506;28;20080;-80
2022/09/19 10:36:20;;;;;;;8.45;2.58;;;;;;;25.03;42.81;100893.78;5061641;28;20056;-80
2022/09/19 10:38:54;;;;;;;3.38;1.80;;;;;;;25.40;42.41;100912.84;5045045;28;20580;-80
2022/09/19 10:41:25;;;;;;;6.45;1.90;;;;;;;25.35;42.67;100908.91;5044937;28;20572;-79
2022/09/19 10:43:59;;;;;;;7.43;2.30;;;;;;;25.33;42.33;100905.59;5061330;28;20567;-79
2022/09/19 10:46:35;;;;;;;12.18;2.38;;;;;;;25.36;41.87;100893.44;5046113;28;20056;-80
2022/09/19 10:49:18;;;;;;;4.93;1.90;;;;;;;25.61;41.83;100906.94;5049761;28;20138;-81
2022/09/19 10:51:47;;;;;;;1.50;1.40;;;;;;;25.75;41.87;100913.00;5064382;28;20102;-79
2022/09/19 10:54:43;;;;;;;5.47;1.88;;;;;;;25.78;42.60;100921.56;5065836;28;20052;-79
2022/09/19 10:57:47;;;;;;;3.38;1.70;;;;;;;25.95;41.80;100918.25;5062696;28;20055;-80
2022/09/19 11:00:44;;;;;;;6.75;2.90;;;;;;;25.97;41.37;100913.38;5064464;28;20099;-80
2022/09/19 11:03:40;;;;;;;6.18;2.38;;;;;;;26.03;41.62;100909.75;5063857;28;20068;-80
2022/09/19 11:06:16;;;;;;;5.72;1.90;;;;;;;26.13;41.30;100904.56;5042902;28;20535;-81
2022/09/19 11:08:44;;;;;;;6.57;1.98;;;;;;;25.98;41.13;100885.13;5048148;28;20528;-79
2022/09/19 11:11:25;;;;;;;2.75;1.42;;;;;;;26.25;40.80;100896.44;5048919;28;20049;-78
2022/09/19 11:14:10;;;;;;;6.00;2.13;;;;;;;26.26;40.80;100919.84;5045881;28;20574;-79
2022/09/19 11:17:08;;;;;;;7.57;2.65;;;;;;;26.21;40.59;100903.41;5044658;28;20504;-78
2022/09/19 11:20:00;;;;;;;6.47;2.00;;;;;;;26.43;40.19;100930.91;5047544;28;20132;-79
2022/09/19 11:22:56;;;;;;;;;;;;;;;26.61;39.73;100928.13;5050867;28;20053;-79
2022/09/19 11:25:49;;;;;;;3.72;2.00;;;;;;;26.56;39.64;100914.41;5043180;28;20364;-79
2022/09/19 11:28:34;;;;;;;8.10;2.40;;;;;;;26.84;39.74;100926.47;5044704;28;20481;-78
2022/09/19 11:31:20;;;;;;;6.20;2.13;;;;;;;26.94;39.85;100925.88;5044259;28;20577;-80
2022/09/19 11:34:47;;;;;;;4.60;1.80;;;;;;;26.80;39.27;100926.13;5043663;28;20053;-80
2022/09/19 11:37:51;;;;;;;10.95;2.30;;;;;;;26.73;39.80;100919.97;5053565;28;20113;-80
2022/09/19 11:40:33;;;;;;;4.82;2.20;;;;;;;26.77;39.01;100882.19;5067547;28;20051;-79
2022/09/19 11:44:05;;;;;;;7.85;2.22;;;;;;;27.21;37.68;100910.75;5068672;28;20056;-80
2022/09/19 11:46:58;;;;;;;4.45;2.50;;;;;;;27.18;37.90;100907.63;5010135;28;20143;-81
2022/09/19 11:50:02;;;;;;;6.78;2.20;;;;;;;27.27;37.84;100917.94;5065600;28;20075;-80
2022/09/19 11:53:01;;;;;;;4.70;2.60;;;;;;;27.26;36.28;100896.41;5065059;28;20048;-80
2022/09/19 11:55:43;;;;;;;4.65;2.67;;;;;;;27.43;37.05;100913.66;5064946;28;20545;-81
2022/09/19 11:58:25;;;;;;;4.78;1.98;;;;;;;26.85;37.11;100832.81;5066370;28;20420;-80
2022/09/19 12:01:15;;;;;;;5.95;1.80;;;;;;;27.07;37.24;100882.06;5065387;28;20052;-80
2022/09/19 12:04:20;;;;;;;8.93;2.75;;;;;;;26.93;37.63;100903.28;5066103;28;20049;-79
2022/09/19 12:07:10;;;;;;;6.53;1.80;;;;;;;26.54;38.28;100908.34;5062027;28;20045;-79
2022/09/19 12:09:52;;;;;;;4.25;2.20;;;;;;;26.40;39.22;100910.41;5057245;28;20582;-80
2022/09/19 12:12:21;;;;;;;5.37;2.30;;;;;;;26.08;37.05;100907.16;5048308;28;20057;-80
2022/09/19 12:14:55;;;;;;;2.97;1.95;;;;;;;25.87;37.53;100878.56;5047549;28;20406;-79
2022/09/19 12:17:42;;;;;;;7.35;2.53;;;;;;;25.86;38.63;100876.94;5048103;28;20136;-78